Yale, OK

8:06 PM CDT on August 22, 2014 (GMT -0500)
Sand Springs William R. Pogue | Change Station
CLOSE
Current Station
Airport
Location: Sand Springs William R. Pogue,
Elevation: 892 ft
Nearby Weather Stations

Elev 892 ft 36.18 °N, 96.15 °W | Updated 11 minutes ago

Clear
Clear
94 °F
Feels Like 98 °F
N
7
Wind Variable Wind from South

Today
High -- | Low -- °F
--% Chance of Precip.
Yesterday
High -- | Low -- °F
Precip. -- in
6:50 AM 8:08 PM
Waning Crescent, 6% visible
Pressure 29.91 in
Visibility 10.0 miles
Clouds Clear
Heat Index 98 °F
Dew Point 66 °F
Humidity 39%
Rainfall 0.00 in
Snow Depth Not available.
UV 0 out of 12
Pollen 9.60 out of 12
Air Quality Not available.
Flu Activity Not available.
METAR KOWP 230055Z AUTO 17006KT 10SM CLR 35/19 A2991 RMK AO2 T03470189

More Conditions Fewer Conditions

Pressure 29.91 in
Visibility 10.0 miles
Clouds Clear
Heat Index 98 °F
Dew Point 66 °F
Humidity 39%
Rainfall 0.00 in
Snow Depth Not available.
UV 0 out of 12
Pollen 9.60 out of 12
Air Quality Not available.
Flu Activity Not available.
METAR KOWP 230055Z AUTO 17006KT 10SM CLR 35/19 A2991 RMK AO2 T03470189

More Conditions Fewer Conditions

10-Day Weather Forecast

Almanac

Astronomy

Aug. 22, 2014 Rise Set
Actual Time 6:50 AM CDT 8:08 PM CDT
Civil Twilight 6:23 AM CDT 8:34 PM CDT
Nautical Twilight 5:51 AM CDT 9:06 PM CDT
Astronomical Twilight 5:18 AM CDT 9:39 PM CDT
Moon 4:16 AM CDT (8/22) 6:15 PM CDT (8/22)
Length of Visible Light 14h 10m
Length of Day
13h 17m
Tomorrow will be 2m 6s shorter.
Waning Crescent, 6% of the Moon is Illuminated
Today
Waning Crescent
Aug 25
New
Sep 2
First Quarter
Sep 8
Full
Sep 15
Last Quarter

Today's Extremes

State Highs State Lows

Community

WunderPhotos

Upload Photos

1,746,336 photos uploaded!

WunderBlogs® & News

Nearby

Snow Depth

Station Depth Elevation
No new snow has been reported.

Earthquake Activity

City Distance Mag. Time & Date
Boley, Oklahoma 52 miles 3.4 9:50 PM CDT
2014-08-17
Cherokee, Oklahoma 99 miles 3.8 8:25 PM CDT
2014-08-17
Medford, Oklahoma 82 miles 2.9 6:30 PM CDT
2014-08-17
Cherokee, Oklahoma 101 miles 2.6 11:50 AM CDT
2014-08-17
Minimum magnitude displayed is 2.5.

Coastal Water Temperatures

Place Temperature
No Stations Reporting

Nearby Weather Stations